KGAI/GAI METAR and TAF weather

Enter ICAO airport designator
Station Type Date Time Source
KGAI METAR 2019/12/07 14:56 UTC NOAA

KGAI 071456Z AUTO VRB05KT 10SM CLR 04/M06 A3041 RMK AO2 SLP314 T00441061 53015


Station Type Date Time Source
KGAI Decoded METAR 2019/12/07 14:56 UTC NOAA

Station name not available
Dec 07, 2019 - 09:56 AM EST / 2019.12.07 1456 UTC
Wind: Variable at 6 MPH (5 KT):0
Visibility: 10 mile(s):0
Sky conditions: clear
Temperature: 39.9 F (4.4 C)
Dew Point: 21.0 F (-6.1 C)
Relative Humidity: 46%
Pressure (altimeter): 30.41 in. Hg (1029 hPa)
Pressure tendency: 0.04 inches (1.5 hPa) higher than three hours ago
ob: KGAI 071456Z AUTO VRB05KT 10SM CLR 04/M06 A3041 RMK AO2 SLP314 T00441061 53015
cycle: 15

Station Type Date Time Source
KGAI TAF UTC NOAA

Error!

Example: see airport list